Time;durP1;ratioP1;P1;durP2;ratioP2;P2;SDS_P1;SDS_P2;PMS_P1;PMS_P2;Temp;Humidity;BMP_temperature;BMP_pressure;BME280_temperature;BME280_humidity;BME280_pressure;Samples;Min_cycle;Max_cycle;Signal;HPM_P1;HPM_P2
2021/06/29 00:00:18;;;;;;;0.30;0.20;;;17.90;99.90;;;;;;6228301;23;20491;-83
2021/06/29 00:02:45;;;;;;;1.13;1.03;;;17.90;99.90;;;;;;6222124;23;20435;-83
2021/06/29 00:05:12;;;;;;;0.30;0.30;;;17.80;99.90;;;;;;6222621;23;20405;-83
2021/06/29 00:07:39;;;;;;;0.30;0.10;;;17.70;99.90;;;;;;6223746;23;20422;-83
2021/06/29 00:10:08;;;;;;;0.30;0.20;;;17.70;99.90;;;;;;6234863;23;20394;-82
2021/06/29 00:12:34;;;;;;;3.90;2.60;;;17.70;99.90;;;;;;6242958;23;20435;-82
2021/06/29 00:15:01;;;;;;;0.43;0.40;;;17.60;99.90;;;;;;6241835;23;20406;-82
2021/06/29 00:17:30;;;;;;;0.30;0.10;;;17.50;99.90;;;;;;6242155;23;20407;-82
2021/06/29 00:19:56;;;;;;;0.30;0.20;;;17.40;99.90;;;;;;6242655;23;20479;-82
2021/06/29 00:22:23;;;;;;;0.30;0.20;;;17.40;99.90;;;;;;6240695;23;20436;-82
2021/06/29 00:24:50;;;;;;;0.30;0.10;;;17.30;99.90;;;;;;6241115;23;20506;-82
2021/06/29 00:27:17;;;;;;;1.23;1.23;;;17.40;99.90;;;;;;6240730;23;20404;-82
2021/06/29 00:29:43;;;;;;;0.30;0.20;;;17.40;99.90;;;;;;6241209;23;20440;-82
2021/06/29 00:32:11;;;;;;;0.83;0.83;;;17.40;99.90;;;;;;6241034;23;20506;-82
2021/06/29 00:34:39;;;;;;;0.30;0.20;;;17.50;99.90;;;;;;6241571;23;20398;-83
2021/06/29 00:37:06;;;;;;;1.63;1.60;;;17.50;99.90;;;;;;6241683;23;20491;-82
2021/06/29 00:39:33;;;;;;;0.30;0.20;;;17.50;99.90;;;;;;6240362;23;20463;-82
2021/06/29 00:42:01;;;;;;;1.23;1.23;;;17.50;99.90;;;;;;6241230;23;20493;-82
2021/06/29 00:44:28;;;;;;;12.50;11.80;;;17.50;99.90;;;;;;6241163;23;20453;-83
2021/06/29 00:46:57;;;;;;;0.30;0.20;;;17.50;99.90;;;;;;6241160;23;20555;-82
2021/06/29 00:49:24;;;;;;;0.30;0.30;;;17.50;99.90;;;;;;6240956;23;20459;-82
2021/06/29 00:51:52;;;;;;;0.30;0.20;;;17.50;99.90;;;;;;6240364;23;20488;-82
2021/06/29 00:54:20;;;;;;;0.30;0.20;;;17.50;99.90;;;;;;6240460;23;20467;-82
2021/06/29 00:56:46;;;;;;;0.70;0.70;;;17.60;99.90;;;;;;6240108;23;20482;-82
2021/06/29 00:59:13;;;;;;;0.30;0.20;;;17.70;99.90;;;;;;6240287;23;20470;-83
2021/06/29 01:01:40;;;;;;;0.30;0.20;;;17.60;99.90;;;;;;6239037;23;20428;-81
2021/06/29 01:04:07;;;;;;;0.30;0.10;;;17.70;99.90;;;;;;6239595;23;20507;-82
2021/06/29 01:06:34;;;;;;;0.30;0.20;;;17.80;99.90;;;;;;6239764;23;20407;-82
2021/06/29 01:09:05;;;;;;;0.87;0.87;;;17.80;99.90;;;;;;6239294;23;20480;-82
2021/06/29 01:11:31;;;;;;;0.30;0.20;;;17.80;99.90;;;;;;6239160;23;20953;-83
2021/06/29 01:14:11;;;;;;;0.30;0.10;;;17.80;99.90;;;;;;6239169;23;20407;-82
2021/06/29 01:16:37;;;;;;;0.30;0.10;;;17.80;99.90;;;;;;6239064;23;20380;-82
2021/06/29 01:19:04;;;;;;;0.20;0.10;;;17.90;99.90;;;;;;6239161;23;20479;-82
2021/06/29 01:21:37;;;;;;;0.20;0.20;;;17.90;99.90;;;;;;6238196;23;20437;-83
2021/06/29 01:24:05;;;;;;;0.37;0.37;;;17.90;99.90;;;;;;6238267;23;20434;-82
2021/06/29 01:26:35;;;;;;;0.30;0.20;;;17.90;99.90;;;;;;6237771;23;20412;-82
2021/06/29 01:29:03;;;;;;;0.30;0.13;;;18.00;99.90;;;;;;6226663;23;20415;-83
2021/06/29 01:31:29;;;;;;;1.83;1.83;;;18.00;99.90;;;;;;6222237;23;20435;-83
2021/06/29 01:33:56;;;;;;;0.30;0.10;;;17.90;99.90;;;;;;6221768;23;20408;-84
2021/06/29 01:36:26;;;;;;;0.30;0.10;;;17.90;99.90;;;;;;6222107;23;20420;-83
2021/06/29 01:38:54;;;;;;;0.27;0.10;;;17.90;99.90;;;;;;6221916;23;20416;-84
2021/06/29 01:41:22;;;;;;;0.67;0.63;;;17.90;99.90;;;;;;6221429;23;20514;-84
2021/06/29 01:43:50;;;;;;;1.40;0.73;;;17.80;99.90;;;;;;6223984;23;20453;-83
2021/06/29 01:46:18;;;;;;;1.17;1.17;;;17.80;99.90;;;;;;6224015;23;20411;-83
2021/06/29 01:48:46;;;;;;;0.30;0.10;;;17.80;99.90;;;;;;6223806;23;20750;-83
2021/06/29 01:51:13;;;;;;;0.40;0.40;;;17.80;99.90;;;;;;6224074;23;20432;-83
2021/06/29 01:53:39;;;;;;;0.30;0.20;;;17.80;99.90;;;;;;6223032;23;20442;-83
2021/06/29 01:56:14;;;;;;;0.30;0.20;;;17.80;99.90;;;;;;6223852;23;20411;-83
2021/06/29 01:58:41;;;;;;;0.30;0.20;;;17.80;99.90;;;;;;6224010;23;20398;-83
2021/06/29 02:01:08;;;;;;;0.33;0.33;;;17.70;99.90;;;;;;6223279;23;20432;-83
2021/06/29 02:03:35;;;;;;;0.30;0.10;;;17.60;99.90;;;;;;6220184;23;20415;-83
2021/06/29 02:06:02;;;;;;;0.30;0.20;;;17.60;99.90;;;;;;6228788;23;20410;-83
2021/06/29 02:08:29;;;;;;;0.30;0.20;;;17.60;99.90;;;;;;6238880;23;20407;-84
2021/06/29 02:10:56;;;;;;;0.40;0.40;;;17.70;99.90;;;;;;6240973;23;20440;-80
2021/06/29 02:13:24;;;;;;;0.30;0.10;;;17.60;99.90;;;;;;6240928;23;20470;-80
2021/06/29 02:15:51;;;;;;;0.30;0.10;;;17.60;99.90;;;;;;6237244;23;20417;-80
2021/06/29 02:18:18;;;;;;;0.30;0.10;;;17.60;99.90;;;;;;6240842;23;20482;-80
2021/06/29 02:20:46;;;;;;;0.30;0.10;;;17.60;99.90;;;;;;6241888;23;20489;-79
2021/06/29 02:23:12;;;;;;;0.30;0.20;;;17.60;99.90;;;;;;6241254;23;20406;-80
2021/06/29 02:25:39;;;;;;;0.30;0.20;;;17.50;99.90;;;;;;6241395;23;20469;-81
2021/06/29 02:28:06;;;;;;;0.30;0.20;;;17.50;99.90;;;;;;6240657;23;20430;-81
2021/06/29 02:30:34;;;;;;;1.53;1.43;;;17.50;99.90;;;;;;6239526;23;20418;-80
2021/06/29 02:33:01;;;;;;;4.00;2.97;;;17.50;99.90;;;;;;6239565;23;20432;-80
2021/06/29 02:35:28;;;;;;;0.30;0.10;;;17.60;99.90;;;;;;6235219;23;20770;-84
2021/06/29 02:37:55;;;;;;;0.30;0.10;;;17.60;99.90;;;;;;6227009;23;20449;-84
2021/06/29 02:40:23;;;;;;;0.30;0.10;;;17.70;99.90;;;;;;6225927;23;20428;-84
2021/06/29 02:42:49;;;;;;;0.30;0.10;;;17.70;99.90;;;;;;6225983;23;20412;-84
2021/06/29 02:45:19;;;;;;;0.30;0.10;;;17.70;99.90;;;;;;6226263;23;20474;-84
2021/06/29 02:47:48;;;;;;;0.30;0.20;;;17.70;99.90;;;;;;6225899;23;20462;-84
2021/06/29 02:50:16;;;;;;;0.30;0.30;;;17.70;99.90;;;;;;6226717;23;20451;-84
2021/06/29 02:52:43;;;;;;;0.30;0.10;;;17.70;99.90;;;;;;6224855;23;20430;-83
2021/06/29 02:55:12;;;;;;;0.30;0.10;;;17.80;99.90;;;;;;6227164;23;20988;-84
2021/06/29 02:57:40;;;;;;;0.30;0.10;;;17.80;99.90;;;;;;6227240;23;20717;-84
2021/06/29 03:00:09;;;;;;;0.30;0.10;;;17.80;99.90;;;;;;6226522;23;20415;-84
2021/06/29 03:02:36;;;;;;;0.83;0.83;;;17.80;99.90;;;;;;6226150;23;20471;-84
2021/06/29 03:05:04;;;;;;;0.30;0.10;;;17.80;99.90;;;;;;6226017;23;20409;-84
2021/06/29 03:07:31;;;;;;;0.30;0.20;;;17.80;99.90;;;;;;6226373;23;20904;-82
2021/06/29 03:09:58;;;;;;;0.30;0.20;;;17.80;99.90;;;;;;6226024;23;20413;-84
2021/06/29 03:12:25;;;;;;;0.30;0.20;;;17.70;99.90;;;;;;6225567;23;20430;-82
2021/06/29 03:14:56;;;;;;;0.50;0.50;;;17.80;99.90;;;;;;6225458;23;20775;-83
2021/06/29 03:17:23;;;;;;;0.30;0.20;;;17.80;99.90;;;;;;6225481;23;20403;-83
2021/06/29 03:19:50;;;;;;;0.30;0.10;;;17.80;99.90;;;;;;6224395;23;20885;-83
2021/06/29 03:22:18;;;;;;;0.30;0.20;;;17.90;99.90;;;;;;6223034;23;20427;-83
2021/06/29 03:24:45;;;;;;;0.30;0.20;;;17.90;99.90;;;;;;6223457;23;20403;-82
2021/06/29 03:27:12;;;;;;;0.30;0.20;;;17.90;99.90;;;;;;6223632;23;20404;-83
2021/06/29 03:29:39;;;;;;;0.97;0.50;;;18.00;99.90;;;;;;6224102;23;20403;-83
2021/06/29 03:32:08;;;;;;;0.27;0.10;;;17.80;99.90;;;;;;6223590;23;20435;-83
2021/06/29 03:34:34;;;;;;;0.20;0.10;;;17.80;99.90;;;;;;6224221;23;20447;-84
2021/06/29 03:37:02;;;;;;;0.30;0.10;;;17.80;99.90;;;;;;6224756;23;20412;-83
2021/06/29 03:39:31;;;;;;;0.30;0.20;;;17.70;99.90;;;;;;6224405;23;20975;-84
2021/06/29 03:41:57;;;;;;;0.30;0.20;;;17.60;99.90;;;;;;6225372;23;20439;-84
2021/06/29 03:44:24;;;;;;;0.30;0.17;;;17.60;99.90;;;;;;6226627;23;20903;-82
2021/06/29 03:46:51;;;;;;;0.30;0.10;;;17.50;99.90;;;;;;6225357;23;20415;-84
2021/06/29 03:49:18;;;;;;;0.67;0.67;;;17.60;99.90;;;;;;6224815;23;20407;-82
2021/06/29 03:51:45;;;;;;;0.30;0.20;;;17.70;99.90;;;;;;6224459;23;20435;-84
2021/06/29 03:54:12;;;;;;;0.27;0.13;;;17.70;99.90;;;;;;6224228;23;20438;-84
2021/06/29 03:56:40;;;;;;;0.30;0.10;;;17.80;99.90;;;;;;6225086;23;20410;-82
2021/06/29 03:59:08;;;;;;;0.30;0.10;;;17.80;99.90;;;;;;6225715;23;20408;-83
2021/06/29 04:01:35;;;;;;;0.47;0.47;;;17.80;99.90;;;;;;6225183;23;20436;-84
2021/06/29 04:04:02;;;;;;;0.30;0.20;;;17.90;99.90;;;;;;6226008;23;20430;-82
2021/06/29 04:06:31;;;;;;;0.30;0.20;;;17.90;99.90;;;;;;6226048;23;20419;-84
2021/06/29 04:08:59;;;;;;;0.73;0.73;;;17.90;99.90;;;;;;6226614;23;20416;-84
2021/06/29 04:11:28;;;;;;;0.30;0.10;;;17.90;99.90;;;;;;6226430;23;20432;-84
2021/06/29 04:13:56;;;;;;;0.40;0.40;;;17.90;99.90;;;;;;6226265;23;20730;-83
2021/06/29 04:16:24;;;;;;;0.30;0.20;;;17.90;99.90;;;;;;6226885;23;20465;-84
2021/06/29 04:18:50;;;;;;;0.30;0.20;;;18.00;99.90;;;;;;6227167;23;20429;-82
2021/06/29 04:21:17;;;;;;;0.30;0.10;;;18.00;99.90;;;;;;6226083;23;20426;-84
2021/06/29 04:23:45;;;;;;;0.30;0.20;;;18.00;99.90;;;;;;6226153;23;20411;-84
2021/06/29 04:26:13;;;;;;;0.40;0.40;;;18.00;99.90;;;;;;6225811;23;20415;-84
2021/06/29 04:28:40;;;;;;;0.30;0.20;;;18.00;99.90;;;;;;6226182;23;21011;-84
2021/06/29 04:31:08;;;;;;;0.30;0.10;;;18.00;99.90;;;;;;6225571;23;20519;-83
2021/06/29 04:33:35;;;;;;;0.30;0.20;;;18.00;99.90;;;;;;6224891;23;20657;-84
2021/06/29 04:36:01;;;;;;;0.30;0.10;;;17.90;99.90;;;;;;6226591;23;20447;-82
2021/06/29 04:38:28;;;;;;;0.30;0.10;;;17.80;99.90;;;;;;6225428;23;20407;-84
2021/06/29 04:40:55;;;;;;;0.30;0.10;;;17.50;99.90;;;;;;6224211;23;20435;-82
2021/06/29 04:43:21;;;;;;;0.30;0.10;;;17.10;99.90;;;;;;6223848;23;20925;-83
2021/06/29 04:45:48;;;;;;;0.30;0.20;;;17.00;99.90;;;;;;6224816;23;20412;-83
2021/06/29 04:48:16;;;;;;;0.30;0.13;;;16.70;99.90;;;;;;6224113;23;20898;-82
2021/06/29 04:50:45;;;;;;;0.70;0.70;;;16.60;99.90;;;;;;6224932;23;20423;-83
2021/06/29 04:53:11;;;;;;;0.30;0.20;;;16.60;99.90;;;;;;6224267;23;20883;-83
2021/06/29 04:55:38;;;;;;;0.30;0.20;;;16.60;99.90;;;;;;6224560;23;20442;-84
2021/06/29 04:58:05;;;;;;;0.27;0.10;;;16.60;99.90;;;;;;6224087;23;20439;-82
2021/06/29 05:00:32;;;;;;;0.30;0.20;;;16.50;99.90;;;;;;6224228;23;20407;-84
2021/06/29 05:02:59;;;;;;;0.63;0.63;;;16.50;99.90;;;;;;6223430;23;20499;-84
2021/06/29 05:05:27;;;;;;;0.30;0.10;;;16.50;99.90;;;;;;6223761;23;20407;-81
2021/06/29 05:07:54;;;;;;;0.30;0.20;;;16.60;99.90;;;;;;6223890;23;20407;-83
2021/06/29 05:10:21;;;;;;;0.30;0.20;;;16.70;99.90;;;;;;6225337;23;20411;-84
2021/06/29 05:12:48;;;;;;;0.23;0.10;;;16.70;99.90;;;;;;6224313;23;20435;-82
2021/06/29 05:15:16;;;;;;;0.30;0.10;;;16.80;99.90;;;;;;6225387;23;20451;-85
2021/06/29 05:17:43;;;;;;;0.20;0.10;;;16.90;99.90;;;;;;6225789;23;20414;-84
2021/06/29 05:20:10;;;;;;;0.30;0.10;;;16.90;99.90;;;;;;6226539;23;20411;-82
2021/06/29 05:22:39;;;;;;;0.30;0.10;;;17.00;99.90;;;;;;6225172;23;20432;-84
2021/06/29 05:25:08;;;;;;;0.50;0.50;;;17.00;99.90;;;;;;6225465;23;20439;-81
2021/06/29 05:27:37;;;;;;;0.30;0.20;;;17.10;99.90;;;;;;6225745;23;20448;-84
2021/06/29 05:30:06;;;;;;;2.87;2.77;;;17.30;99.90;;;;;;6224797;23;20433;-84
2021/06/29 05:32:32;;;;;;;0.70;0.70;;;17.40;99.90;;;;;;6223695;23;20489;-84
2021/06/29 05:34:59;;;;;;;0.30;0.10;;;17.50;99.90;;;;;;6224589;23;20448;-84
2021/06/29 05:37:26;;;;;;;0.30;0.10;;;17.60;99.90;;;;;;6223968;23;20419;-82
2021/06/29 05:39:54;;;;;;;0.30;0.20;;;17.60;99.90;;;;;;6223953;23;20935;-83
2021/06/29 05:42:21;;;;;;;0.30;0.20;;;17.50;99.90;;;;;;6223533;23;20438;-84
2021/06/29 05:44:47;;;;;;;0.20;0.10;;;17.40;99.90;;;;;;6225266;23;20465;-84
2021/06/29 05:47:20;;;;;;;0.30;0.10;;;17.50;99.90;;;;;;6230633;23;20501;-82
2021/06/29 05:49:47;;;;;;;0.30;0.10;;;17.60;99.90;;;;;;6216986;23;20463;-82
2021/06/29 05:52:14;;;;;;;1.03;0.93;;;17.70;99.90;;;;;;6224523;23;20431;-84
2021/06/29 05:54:43;;;;;;;0.80;0.80;;;17.80;99.90;;;;;;6224368;23;20471;-82
2021/06/29 05:57:11;;;;;;;0.30;0.10;;;17.90;99.90;;;;;;6225601;23;20507;-84
2021/06/29 05:59:38;;;;;;;0.30;0.20;;;18.00;99.90;;;;;;6225345;23;20415;-84
2021/06/29 06:02:05;;;;;;;1.23;1.07;;;18.10;99.90;;;;;;6225360;23;20511;-84
2021/06/29 06:04:32;;;;;;;0.30;0.20;;;18.20;99.90;;;;;;6225702;23;20415;-84
2021/06/29 06:06:59;;;;;;;0.30;0.20;;;18.40;99.90;;;;;;6225414;23;20400;-83
2021/06/29 06:09:26;;;;;;;0.57;0.57;;;18.50;99.90;;;;;;6226049;23;20819;-85
2021/06/29 06:11:53;;;;;;;0.30;0.20;;;18.60;99.90;;;;;;6220440;23;20448;-83
2021/06/29 06:14:21;;;;;;;0.30;0.20;;;18.70;99.90;;;;;;6221786;23;20408;-84
2021/06/29 06:16:47;;;;;;;0.30;0.10;;;18.80;99.90;;;;;;6220431;23;20448;-83
2021/06/29 06:19:14;;;;;;;0.30;0.10;;;18.90;99.90;;;;;;6219609;23;20484;-84
2021/06/29 06:21:41;;;;;;;0.30;0.10;;;19.00;99.90;;;;;;6219186;23;20433;-84
2021/06/29 06:24:08;;;;;;;0.87;0.87;;;19.20;99.90;;;;;;6219759;23;20412;-84
2021/06/29 06:26:35;;;;;;;0.30;0.20;;;19.30;99.90;;;;;;6219681;23;20427;-84
2021/06/29 06:29:02;;;;;;;0.30;0.20;;;19.40;99.90;;;;;;6221004;23;20415;-84
2021/06/29 06:31:30;;;;;;;0.30;0.20;;;19.50;99.90;;;;;;6221089;23;20441;-85
2021/06/29 06:33:57;;;;;;;0.30;0.10;;;19.70;99.90;;;;;;6221365;23;20415;-84
2021/06/29 06:36:23;;;;;;;0.30;0.20;;;19.70;99.90;;;;;;6234123;23;20452;-81
2021/06/29 06:38:50;;;;;;;0.30;0.10;;;19.80;99.90;;;;;;6217220;23;20413;-81
2021/06/29 06:41:17;;;;;;;0.30;0.20;;;19.80;99.90;;;;;;6218702;23;20813;-82
2021/06/29 06:43:45;;;;;;;0.30;0.10;;;19.80;99.90;;;;;;6222156;23;20731;-82
2021/06/29 06:46:12;;;;;;;0.30;0.10;;;19.90;99.90;;;;;;6222495;23;20493;-82
2021/06/29 06:48:42;;;;;;;0.30;0.20;;;19.90;99.90;;;;;;6221779;23;20405;-83
2021/06/29 06:51:09;;;;;;;0.30;0.20;;;19.70;99.90;;;;;;6222160;23;20444;-82
2021/06/29 06:53:37;;;;;;;0.60;0.60;;;19.50;99.90;;;;;;6221933;23;20406;-82
2021/06/29 06:56:04;;;;;;;0.30;0.10;;;19.50;99.90;;;;;;6222150;23;20742;-82
2021/06/29 06:58:31;;;;;;;0.30;0.10;;;19.60;99.90;;;;;;6222885;23;20415;-82
2021/06/29 07:00:58;;;;;;;0.30;0.10;;;19.60;99.90;;;;;;6222306;23;20437;-83
2021/06/29 07:03:25;;;;;;;0.30;0.20;;;19.60;99.90;;;;;;6222396;23;20411;-84
2021/06/29 07:05:53;;;;;;;0.30;0.17;;;19.60;99.90;;;;;;6225981;23;20401;-84
2021/06/29 07:08:20;;;;;;;0.30;0.20;;;19.60;99.90;;;;;;6226331;23;20415;-83
2021/06/29 07:10:46;;;;;;;0.30;0.20;;;19.60;99.90;;;;;;6225929;23;20431;-84
2021/06/29 07:13:13;;;;;;;0.30;0.20;;;19.70;99.90;;;;;;6227392;23;20419;-83
2021/06/29 07:15:40;;;;;;;0.30;0.20;;;19.60;99.90;;;;;;6229520;23;20447;-82
2021/06/29 07:18:07;;;;;;;0.30;0.10;;;19.60;99.90;;;;;;6230368;23;20490;-83
2021/06/29 07:20:34;;;;;;;0.30;0.20;;;19.60;99.90;;;;;;6229839;23;20461;-82
2021/06/29 07:23:02;;;;;;;0.30;0.20;;;19.60;99.90;;;;;;6226114;23;20415;-83
2021/06/29 07:25:29;;;;;;;0.30;0.20;;;19.60;99.90;;;;;;6231890;23;20460;-83
2021/06/29 07:27:56;;;;;;;1.60;1.60;;;19.70;99.90;;;;;;6223970;23;20411;-82
2021/06/29 07:30:23;;;;;;;0.30;0.20;;;19.70;99.90;;;;;;6226115;23;20443;-83
2021/06/29 07:32:53;;;;;;;0.30;0.10;;;19.70;99.90;;;;;;6227397;23;20413;-83
2021/06/29 07:35:20;;;;;;;0.30;0.20;;;19.80;99.90;;;;;;6234890;23;20405;-83
2021/06/29 07:37:47;;;;;;;0.30;0.10;;;19.80;99.90;;;;;;6239539;23;20473;-81
2021/06/29 07:40:15;;;;;;;0.30;0.20;;;19.80;99.90;;;;;;6235777;23;20420;-84
2021/06/29 07:42:42;;;;;;;0.30;0.20;;;19.80;99.90;;;;;;6226682;23;20432;-83
2021/06/29 07:45:10;;;;;;;0.50;0.50;;;19.90;99.90;;;;;;6223988;23;20410;-83
2021/06/29 07:47:37;;;;;;;0.30;0.10;;;20.00;99.90;;;;;;6227575;23;20409;-84
2021/06/29 07:50:07;;;;;;;1.70;1.60;;;20.00;99.90;;;;;;6227125;23;20412;-82
2021/06/29 07:52:34;;;;;;;2.90;2.80;;;20.00;99.90;;;;;;6227089;23;20443;-83
2021/06/29 07:55:01;;;;;;;3.03;2.83;;;20.10;99.90;;;;;;6227197;23;20473;-82
2021/06/29 07:57:29;;;;;;;3.10;2.80;;;20.10;99.90;;;;;;6225047;23;20837;-83
2021/06/29 07:59:55;;;;;;;3.93;3.63;;;20.10;99.90;;;;;;6226685;23;20415;-84
2021/06/29 08:02:22;;;;;;;3.33;3.17;;;20.20;99.90;;;;;;6226507;23;20802;-82
2021/06/29 08:04:49;;;;;;;3.43;3.23;;;20.30;99.90;;;;;;6222870;23;20897;-82
2021/06/29 08:07:29;;;;;;;3.70;3.50;;;20.30;99.90;;;;;;6222076;23;20493;-86
2021/06/29 08:10:00;;;;;;;2.80;2.67;;;20.40;99.90;;;;;;6217020;23;20732;-84
2021/06/29 08:12:28;;;;;;;3.47;2.93;;;20.40;99.90;;;;;;6215452;23;20433;-84
2021/06/29 08:14:55;;;;;;;2.70;2.60;;;20.50;99.90;;;;;;6216152;23;20409;-85
2021/06/29 08:17:28;;;;;;;3.17;2.97;;;20.50;99.90;;;;;;6216282;23;20445;-86
2021/06/29 08:20:18;;;;;;;2.80;2.60;;;20.60;99.90;;;;;;6217015;23;20393;-85
2021/06/29 08:23:17;;;;;;;2.50;2.40;;;20.50;99.90;;;;;;6184505;23;21043;-85
2021/06/29 08:25:53;;;;;;;2.83;2.70;;;20.30;99.90;;;;;;6208271;23;20445;-85
2021/06/29 08:28:33;;;;;;;3.00;2.80;;;20.50;99.90;;;;;;6216752;23;20754;-83
2021/06/29 08:31:19;;;;;;;;;;;;;;;;;;;;;
2021/06/29 08:34:35;;;;;;;;;;;;;;;;;;;;;
2021/06/29 08:37:22;;;;;;;2.33;2.23;;;20.80;99.90;;;;;;6151944;23;20539;-83
2021/06/29 08:39:49;;;;;;;2.27;2.17;;;20.90;99.90;;;;;;6216230;23;20421;-84
2021/06/29 08:42:19;;;;;;;2.50;2.40;;;20.90;99.90;;;;;;6215081;23;20767;-83
2021/06/29 08:44:47;;;;;;;2.20;2.10;;;21.00;99.90;;;;;;6215854;23;20405;-83
2021/06/29 08:47:13;;;;;;;2.60;2.50;;;21.00;99.90;;;;;;6216141;23;20421;-83
2021/06/29 08:49:41;;;;;;;2.30;2.03;;;20.90;99.90;;;;;;6215300;23;20406;-83
2021/06/29 08:52:09;;;;;;;1.93;1.80;;;21.10;99.90;;;;;;6213819;23;20479;-83
2021/06/29 08:54:36;;;;;;;3.43;1.80;;;21.20;99.90;;;;;;6215124;23;20502;-84
2021/06/29 08:57:04;;;;;;;3.17;2.97;;;21.20;99.90;;;;;;6215295;23;20449;-82
2021/06/29 08:59:31;;;;;;;2.40;2.30;;;21.30;99.90;;;;;;6218924;23;20417;-83
2021/06/29 09:02:00;;;;;;;2.00;1.90;;;21.50;99.90;;;;;;6218865;23;20432;-83
2021/06/29 09:04:43;;;;;;;2.70;2.50;;;21.50;99.90;;;;;;6218588;23;20418;-82
2021/06/29 09:07:17;;;;;;;2.30;2.10;;;21.60;99.90;;;;;;6218670;23;20418;-82
2021/06/29 09:09:48;;;;;;;2.40;2.20;;;21.70;99.90;;;;;;6218698;23;20905;-84
2021/06/29 09:12:42;;;;;;;2.30;2.20;;;21.70;99.90;;;;;;6214088;23;20426;-83
2021/06/29 09:15:27;;;;;;;2.60;2.50;;;21.90;99.90;;;;;;6215791;23;20393;-82
2021/06/29 09:17:56;;;;;;;1.70;1.60;;;21.90;99.90;;;;;;6216044;23;20431;-82
2021/06/29 09:20:29;;;;;;;1.67;1.57;;;22.10;99.90;;;;;;6216424;23;20742;-83
2021/06/29 09:22:58;;;;;;;2.10;1.97;;;22.20;99.90;;;;;;6215966;23;20510;-83
2021/06/29 09:25:27;;;;;;;1.97;1.77;;;22.40;99.90;;;;;;6217646;23;20762;-84
2021/06/29 09:27:55;;;;;;;1.80;1.70;;;22.50;99.90;;;;;;6219169;23;20403;-84
2021/06/29 09:30:33;;;;;;;2.63;2.43;;;22.60;99.90;;;;;;6219405;23;20954;-84
2021/06/29 09:33:06;;;;;;;1.93;1.83;;;22.70;99.90;;;;;;6216059;23;20950;-85
2021/06/29 09:35:33;;;;;;;5.10;1.77;;;22.90;99.90;;;;;;6216822;23;20420;-83
2021/06/29 09:38:01;;;;;;;1.80;1.70;;;23.00;99.90;;;;;;6218295;23;20448;-83
2021/06/29 09:40:29;;;;;;;1.90;1.80;;;23.00;99.90;;;;;;6217864;23;20506;-83
2021/06/29 09:43:08;;;;;;;2.40;1.60;;;23.10;99.90;;;;;;6216046;23;20920;-83
2021/06/29 09:45:36;;;;;;;1.83;1.73;;;23.10;99.90;;;;;;6217902;23;20741;-81
2021/06/29 09:48:09;;;;;;;2.70;2.47;;;23.20;99.90;;;;;;6216534;23;20416;-83
2021/06/29 09:50:38;;;;;;;3.30;2.00;;;23.30;99.90;;;;;;6217348;23;20741;-83
2021/06/29 09:53:24;;;;;;;2.13;2.03;;;23.50;99.90;;;;;;6216738;23;20405;-83
2021/06/29 09:55:52;;;;;;;2.20;2.10;;;23.70;99.90;;;;;;6216671;23;20893;-82
2021/06/29 09:58:20;;;;;;;1.87;1.77;;;23.90;99.90;;;;;;6216498;23;20408;-84
2021/06/29 10:00:49;;;;;;;2.77;2.50;;;24.00;99.90;;;;;;6216173;23;20440;-84
2021/06/29 10:03:22;;;;;;;2.27;2.13;;;24.20;99.90;;;;;;6217431;23;20496;-84
2021/06/29 10:05:52;;;;;;;2.10;2.00;;;24.20;99.90;;;;;;6217711;23;20401;-84
2021/06/29 10:08:27;;;;;;;2.00;1.80;;;24.10;99.90;;;;;;6218623;23;20441;-84
2021/06/29 10:11:13;;;;;;;1.80;1.70;;;24.10;99.90;;;;;;6218345;23;20502;-83
2021/06/29 10:13:42;;;;;;;1.90;1.80;;;24.00;99.90;;;;;;6216435;23;20393;-84
2021/06/29 10:16:11;;;;;;;2.47;2.37;;;24.10;99.90;;;;;;6215829;23;20420;-82
2021/06/29 10:18:43;;;;;;;1.80;1.70;;;24.00;99.90;;;;;;6218577;23;20420;-84
2021/06/29 10:21:22;;;;;;;1.63;1.53;;;24.10;99.90;;;;;;6217858;23;20425;-84
2021/06/29 10:23:50;;;;;;;1.90;1.80;;;24.30;99.70;;;;;;6215780;23;20917;-81
2021/06/29 10:26:25;;;;;;;2.40;2.20;;;24.40;99.20;;;;;;6216734;23;20943;-85
2021/06/29 10:28:54;;;;;;;2.87;2.67;;;24.60;99.90;;;;;;6216903;23;20480;-84
2021/06/29 10:31:23;;;;;;;2.00;1.90;;;24.80;99.90;;;;;;6217535;23;20761;-83
2021/06/29 10:33:52;;;;;;;2.50;2.30;;;25.00;99.90;;;;;;6216658;23;20412;-83
2021/06/29 10:36:21;;;;;;;1.90;1.80;;;25.10;98.40;;;;;;6217581;23;20445;-84
2021/06/29 10:38:48;;;;;;;1.70;1.60;;;25.30;99.90;;;;;;6216726;23;20414;-84
2021/06/29 10:41:16;;;;;;;3.00;1.80;;;25.50;98.00;;;;;;6217873;23;21045;-83
2021/06/29 10:43:43;;;;;;;2.17;2.07;;;25.70;98.40;;;;;;6217501;23;20417;-84
2021/06/29 10:46:51;;;;;;;2.23;2.13;;;25.70;97.00;;;;;;6219216;23;20891;-85
2021/06/29 10:49:34;;;;;;;1.60;1.50;;;25.80;96.70;;;;;;6216827;23;20423;-83
2021/06/29 10:52:04;;;;;;;1.90;1.80;;;25.80;96.60;;;;;;6216986;23;20929;-84
2021/06/29 10:54:42;;;;;;;1.53;1.43;;;26.00;96.00;;;;;;6217944;23;20422;-84
2021/06/29 10:57:12;;;;;;;1.60;1.50;;;26.10;95.10;;;;;;6219739;23;20429;-83
2021/06/29 10:59:41;;;;;;;2.23;2.07;;;26.20;95.90;;;;;;6218919;23;20471;-84
2021/06/29 11:02:13;;;;;;;3.20;2.27;;;26.40;95.50;;;;;;6217130;23;20935;-84
2021/06/29 11:04:55;;;;;;;2.00;1.90;;;26.50;95.50;;;;;;6217912;23;20447;-86
2021/06/29 11:07:42;;;;;;;2.07;1.97;;;26.60;94.10;;;;;;6218653;23;20402;-83
2021/06/29 11:10:11;;;;;;;2.40;2.07;;;26.90;96.00;;;;;;6218740;23;20939;-83
2021/06/29 11:12:40;;;;;;;2.60;2.13;;;27.30;96.20;;;;;;6217113;23;20436;-83
2021/06/29 11:15:10;;;;;;;2.10;2.00;;;27.90;96.80;;;;;;6217426;23;20410;-83
2021/06/29 11:17:55;;;;;;;4.00;2.80;;;28.50;95.50;;;;;;6218243;23;20440;-83
2021/06/29 11:20:25;;;;;;;2.47;2.27;;;29.20;95.30;;;;;;6217988;23;20399;-83
2021/06/29 11:22:58;;;;;;;1.73;1.63;;;29.60;94.20;;;;;;6216881;23;20697;-83
2021/06/29 11:25:42;;;;;;;2.37;2.20;;;30.00;92.60;;;;;;6222053;23;20411;-85
2021/06/29 11:28:12;;;;;;;2.63;2.37;;;30.40;92.30;;;;;;6228258;23;20426;-83
2021/06/29 11:31:02;;;;;;;2.33;2.13;;;30.60;91.00;;;;;;6227201;23;20458;-85
2021/06/29 11:33:59;;;;;;;2.50;2.20;;;30.60;88.50;;;;;;6217522;23;20733;-84
2021/06/29 11:36:47;;;;;;;2.83;2.07;;;30.80;89.20;;;;;;6218873;23;20380;-85
2021/06/29 11:39:32;;;;;;;2.00;1.90;;;30.80;87.80;;;;;;6217743;23;20491;-85
2021/06/29 11:42:02;;;;;;;2.33;2.13;;;31.10;89.40;;;;;;6217436;23;20990;-84
2021/06/29 11:44:44;;;;;;;2.40;2.17;;;31.40;87.80;;;;;;6217281;23;20443;-84
2021/06/29 11:47:14;;;;;;;2.00;1.90;;;31.50;88.10;;;;;;6219667;23;20527;-85
2021/06/29 11:49:50;;;;;;;2.60;2.40;;;31.60;83.90;;;;;;6218774;23;20444;-85
2021/06/29 11:52:36;;;;;;;1.93;1.83;;;31.60;83.50;;;;;;6218021;23;20441;-84
2021/06/29 11:55:12;;;;;;;1.97;1.87;;;31.50;84.00;;;;;;6217987;23;20395;-85
2021/06/29 11:57:42;;;;;;;2.80;2.20;;;31.30;83.60;;;;;;6217929;23;20403;-84
2021/06/29 12:00:24;;;;;;;1.73;1.63;;;31.30;86.00;;;;;;6219186;23;20491;-84
2021/06/29 12:02:53;;;;;;;2.10;2.00;;;31.50;84.70;;;;;;6218631;23;20407;-84
2021/06/29 12:05:21;;;;;;;2.37;2.27;;;31.90;86.30;;;;;;6218233;23;20411;-84
2021/06/29 12:07:50;;;;;;;2.40;2.20;;;32.30;85.80;;;;;;6217923;23;20443;-85
2021/06/29 12:10:20;;;;;;;2.20;2.10;;;32.90;86.10;;;;;;6216855;23;20413;-84
2021/06/29 12:12:48;;;;;;;3.17;2.20;;;33.40;78.50;;;;;;6216320;23;20431;-84
2021/06/29 12:15:21;;;;;;;2.03;1.93;;;33.40;74.50;;;;;;6217370;23;20415;-82
2021/06/29 12:17:51;;;;;;;2.40;2.30;;;33.00;74.40;;;;;;6217381;23;20384;-83
2021/06/29 12:20:19;;;;;;;2.47;2.20;;;32.70;72.40;;;;;;6217356;23;20401;-82
2021/06/29 12:22:46;;;;;;;4.03;2.40;;;32.60;75.90;;;;;;6216702;23;20430;-83
2021/06/29 12:25:23;;;;;;;3.47;2.73;;;32.50;74.50;;;;;;6216846;23;20413;-82
2021/06/29 12:27:52;;;;;;;3.17;2.97;;;32.30;75.50;;;;;;6216864;23;20430;-81
2021/06/29 12:30:26;;;;;;;2.53;2.33;;;32.00;75.70;;;;;;6217289;23;20424;-81
2021/06/29 12:32:53;;;;;;;2.50;2.40;;;31.60;74.10;;;;;;6215849;23;20394;-81
2021/06/29 12:35:21;;;;;;;2.13;2.00;;;31.30;76.50;;;;;;6215903;23;20405;-80
2021/06/29 12:37:59;;;;;;;2.80;2.60;;;31.00;74.90;;;;;;6216245;23;20416;-80
2021/06/29 12:40:30;;;;;;;2.70;2.60;;;30.60;75.40;;;;;;6216714;23;20444;-79
2021/06/29 12:42:57;;;;;;;3.83;3.23;;;30.20;75.30;;;;;;6215581;23;20418;-80
2021/06/29 12:45:30;;;;;;;3.67;3.40;;;29.40;79.40;;;;;;6216054;23;20420;-79
2021/06/29 12:48:08;;;;;;;2.20;2.10;;;29.10;79.30;;;;;;6215705;23;20462;-81
2021/06/29 12:50:36;;;;;;;3.20;3.00;;;28.60;80.70;;;;;;6216284;23;20502;-80
2021/06/29 12:53:04;;;;;;;2.30;2.10;;;28.10;83.10;;;;;;6218827;23;20424;-85
2021/06/29 12:55:32;;;;;;;1.97;1.20;;;27.50;82.20;;;;;;6219655;23;20422;-84
2021/06/29 12:58:11;;;;;;;1.27;0.70;;;25.90;84.80;;;;;;6224305;23;20460;-85
2021/06/29 13:00:42;;;;;;;3.37;1.80;;;24.80;88.40;;;;;;6217618;23;20427;-84
2021/06/29 14:45:44;;;;;;;;;;;;;;;;;;;;;